Hastings, NE (68901)

6:43 AM CDT on July 26, 2017 (GMT -0500)
West 12th Street | | Change Station

Elev 1934 ft 40.60 °N, 98.40 °W | Updated 14 seconds ago

Light Rain
Light Rain
69.0 °F
Feels Like 69.0 °F
N
0.0
Wind Variable Wind from ESE
Gusts 0.0 mph

Today
High -- | Low -- °F
--% Chance of Precip.
Yesterday
High -- | Low -- °F
Precip. -- in
Pressure 29.90 in
Visibility 10.0 miles
Clouds Few 3100 ft
Scattered Clouds 9000 ft
Mostly Cloudy 12000 ft
Dew Point 69 °F
Humidity 100%
Rainfall 0.49 in
Snow Depth Not available.
6:25 AM 8:54 PM
Waxing Crescent, 12% visible
METAR KHSI 261053Z AUTO 08006KT 10SM -RA FEW031 SCT090 BKN120 21/20 A2996 RMK AO2 LTG DSNT E-S TSB24E45 SLP125 P0036 T02110200
Pressure 29.90 in
Visibility 10.0 miles
Clouds Few 3100 ft
Scattered Clouds 9000 ft
Mostly Cloudy 12000 ft
Dew Point 69 °F
Humidity 100%
Rainfall 0.49 in
Snow Depth Not available.
6:25 AM 8:54 PM
Waxing Crescent, 12% visible
METAR KHSI 261053Z AUTO 08006KT 10SM -RA FEW031 SCT090 BKN120 21/20 A2996 RMK AO2 LTG DSNT E-S TSB24E45 SLP125 P0036 T02110200

Get Severe Weather Alerts

Thanks for signing up!

Be on the lookout for a verification email in your inbox.

You'll start receiving the daily forecast at 6 AM.

×

10-Day Weather Forecast

Almanac

Astronomy

Jul. 26, 2017 Rise Set
Actual Time
Civil Twilight
Nautical Twilight
Astronomical Twilight
Moon
Length of Visible Light
Length of Day
Tomorrow will be .
, % of the Moon is Illuminated

Today's Extremes

State Highs State Lows

Community

WunderPhotos

Category 6

Welcome to Category 6. This is the collective home for Weather Underground's featured writeups by Dr. Jeff Masters (right), Bob Henson (left), Chris Burt, and other regular contributors.

Nearby

Air Quality

  Air Quality AQ Index Pollutant
Not available.

Snow Depth

Station Depth Elevation

Earthquake Activity

City Distance Mag. Time & Date
Minimum magnitude displayed is 2.5.

Coastal Water Temperatures

Place Temperature

Stations

Nearby Weather Stations

Station Location Temp. Windchill Dew Point Humidity Wind Precip. Elev Updated Type
                   

Watches & Warnings

There are currently no watches in effect.